createdAt,value
2022-11-24T00:01:16.365Z,99103.94
2022-11-24T00:03:46.217Z,99106.50
2022-11-24T00:06:15.707Z,99103.28
2022-11-24T00:08:45.201Z,99110.75
2022-11-24T00:11:16.044Z,99105.22
2022-11-24T00:13:44.211Z,99107.78
2022-11-24T00:16:17.060Z,99114.38
2022-11-24T00:18:46.429Z,99121.44
2022-11-24T00:21:15.879Z,99119.50
2022-11-24T00:23:44.156Z,99125.69
2022-11-24T00:26:20.433Z,99122.28
2022-11-24T00:28:49.901Z,99131.03
2022-11-24T00:31:32.684Z,99129.31
2022-11-24T00:34:03.480Z,99137.19
2022-11-24T00:36:33.280Z,99134.22
2022-11-24T00:39:03.389Z,99137.66
2022-11-24T00:41:31.771Z,99132.91
2022-11-24T00:43:59.513Z,99139.34
2022-11-24T00:46:28.014Z,99146.59
2022-11-24T00:48:56.392Z,99143.19
2022-11-24T00:51:27.927Z,99140.84
2022-11-24T00:53:56.438Z,99144.25
2022-11-24T00:56:24.701Z,99151.06
2022-11-24T00:58:52.290Z,99146.59
2022-11-24T01:01:22.952Z,99146.59
2022-11-24T01:03:51.126Z,99148.06
2022-11-24T01:06:23.758Z,99152.13
2022-11-24T01:08:51.501Z,99155.09
2022-11-24T01:11:20.435Z,99160.00
2022-11-24T01:13:51.989Z,99164.94
2022-11-24T01:16:27.413Z,99158.94
2022-11-24T01:18:55.727Z,99168.97
2022-11-24T01:21:23.577Z,99172.38
2022-11-24T01:23:51.069Z,99163.84
2022-11-24T01:26:21.225Z,99167.06
2022-11-24T01:28:53.840Z,99164.47
2022-11-24T01:31:21.692Z,99156.78
2022-11-24T01:33:49.221Z,99167.69
2022-11-24T01:36:16.665Z,99160.84
2022-11-24T01:38:44.146Z,99163.22
2022-11-24T01:41:23.198Z,99161.47
2022-11-24T01:43:52.215Z,99169.78
2022-11-24T01:46:22.743Z,99169.78
2022-11-24T01:49:03.285Z,99173.63
2022-11-24T01:51:34.693Z,99171.53
2022-11-24T01:54:14.200Z,99173.63
2022-11-24T01:56:46.653Z,99162.97
2022-11-24T01:59:16.053Z,99172.16
2022-11-24T02:01:43.738Z,99167.88
2022-11-24T02:04:17.624Z,99175.75
2022-11-24T02:06:46.686Z,99180.25
2022-11-24T02:09:31.777Z,99169.56
2022-11-24T02:12:01.025Z,99178.09
2022-11-24T02:14:28.742Z,99178.09
2022-11-24T02:16:56.154Z,99174.47
2022-11-24T02:19:46.974Z,99171.28
2022-11-24T02:22:23.166Z,99171.47
2022-11-24T02:25:01.633Z,99171.03
2022-11-24T02:27:29.103Z,99164.41
2022-11-24T02:29:56.518Z,99171.28
2022-11-24T02:32:24.188Z,99169.38
2022-11-24T02:35:01.052Z,99174.25
2022-11-24T02:37:28.514Z,99176.81
2022-11-24T02:39:55.942Z,99171.72
2022-11-24T02:42:26.489Z,99169.56
2022-11-24T02:44:59.198Z,99164.66
2022-11-24T02:47:27.111Z,99166.16
2022-11-24T02:49:54.550Z,99171.28
2022-11-24T02:52:21.961Z,99168.94
2022-11-24T02:54:49.375Z,99173.59
2022-11-24T02:57:16.825Z,99176.19
2022-11-24T02:59:44.677Z,99176.63
2022-11-24T03:02:12.211Z,99183.00
2022-11-24T03:04:39.699Z,99182.13
2022-11-24T03:07:07.390Z,99181.31
2022-11-24T03:09:34.876Z,99182.78
2022-11-24T03:12:02.306Z,99182.13
2022-11-24T03:14:29.755Z,99186.00
2022-11-24T03:16:57.270Z,99186.22
2022-11-24T03:19:24.729Z,99186.41
2022-11-24T03:21:52.379Z,99191.56
2022-11-24T03:24:19.804Z,99181.56
2022-11-24T03:26:47.256Z,99185.22
2022-11-24T03:29:14.641Z,99183.44
2022-11-24T03:31:42.235Z,99179.84
2022-11-24T03:34:10.024Z,99189.00
2022-11-24T03:36:37.401Z,99192.00
2022-11-24T03:39:04.968Z,99194.97
2022-11-24T03:41:32.382Z,99193.94
2022-11-24T03:43:59.796Z,99199.25
2022-11-24T03:46:27.247Z,99202.19
2022-11-24T03:48:54.699Z,99206.44
2022-11-24T03:51:22.116Z,99203.69
2022-11-24T03:53:49.500Z,99210.09
2022-11-24T03:56:16.965Z,99210.34
2022-11-24T03:58:44.457Z,99216.31
2022-11-24T04:01:11.932Z,99222.69
2022-11-24T04:03:39.429Z,99224.41
2022-11-24T04:06:06.843Z,99225.22
2022-11-24T04:08:34.238Z,99226.97
2022-11-24T04:11:01.782Z,99224.16
2022-11-24T04:13:29.162Z,99227.59
2022-11-24T04:15:56.582Z,99234.41
2022-11-24T04:18:24.279Z,99235.69
2022-11-24T04:20:52.299Z,99248.72
2022-11-24T04:23:19.936Z,99247.03
2022-11-24T04:25:47.406Z,99246.84
2022-11-24T04:28:14.881Z,99254.06
2022-11-24T04:30:44.739Z,99256.19
2022-11-24T04:33:13.391Z,99261.34
2022-11-24T04:35:40.928Z,99261.97
2022-11-24T04:38:08.578Z,99269.41
2022-11-24T04:40:36.053Z,99272.63
2022-11-24T04:43:03.448Z,99273.25
2022-11-24T04:45:30.876Z,99280.09
2022-11-24T04:47:58.381Z,99279.88
2022-11-24T04:50:25.804Z,99287.34
2022-11-24T04:52:53.182Z,99286.47
2022-11-24T04:55:20.696Z,99291.84
2022-11-24T04:57:48.084Z,99294.44
2022-11-24T05:00:15.826Z,99296.31
2022-11-24T05:02:43.269Z,99302.06
2022-11-24T05:05:10.749Z,99308.69
2022-11-24T05:07:38.500Z,99306.53
2022-11-24T05:10:24.955Z,99314.50
2022-11-24T05:12:56.982Z,99308.69
2022-11-24T05:15:24.451Z,99321.06
2022-11-24T05:17:52.319Z,99323.84
2022-11-24T05:20:20.254Z,99317.44
2022-11-24T05:22:47.888Z,99321.31
2022-11-24T05:25:15.515Z,99329.00
2022-11-24T05:27:43.064Z,99334.25
2022-11-24T05:30:11.418Z,99331.84
2022-11-24T05:32:38.951Z,99342.69
2022-11-24T05:35:07.213Z,99341.50
2022-11-24T05:37:34.783Z,99332.34
2022-11-24T05:40:02.618Z,99346.19
2022-11-24T05:42:47.296Z,99351.03
2022-11-24T05:45:18.793Z,99352.81
2022-11-24T05:47:47.028Z,99355.81
2022-11-24T05:50:18.920Z,99363.06
2022-11-24T05:52:46.784Z,99364.78
2022-11-24T05:55:15.579Z,99361.19
2022-11-24T05:57:43.152Z,99360.56
2022-11-24T06:00:11.540Z,99366.06
2022-11-24T06:02:41.687Z,99361.19
2022-11-24T06:05:09.433Z,99365.91
2022-11-24T06:07:36.948Z,99361.19
2022-11-24T06:10:05.636Z,99381.47
2022-11-24T06:12:33.232Z,99383.81
2022-11-24T06:15:00.865Z,99381.84
2022-11-24T06:17:29.006Z,99381.22
2022-11-24T06:19:56.651Z,99383.34
2022-11-24T06:22:24.133Z,99383.34
2022-11-24T06:24:51.549Z,99381.44
2022-11-24T06:27:19.471Z,99387.22
2022-11-24T06:29:47.594Z,99393.19
2022-11-24T06:32:15.739Z,99400.00
2022-11-24T06:34:43.274Z,99393.22
2022-11-24T06:37:10.938Z,99407.09
2022-11-24T06:39:38.487Z,99412.22
2022-11-24T06:42:05.915Z,99417.38
2022-11-24T06:44:33.592Z,99418.16
2022-11-24T06:47:01.738Z,99421.00
2022-11-24T06:49:29.368Z,99429.28
2022-11-24T06:51:56.853Z,99429.75
2022-11-24T06:54:24.317Z,99433.78
2022-11-24T06:56:59.577Z,99441.66
2022-11-24T06:59:27.820Z,99453.66
2022-11-24T07:01:55.218Z,99455.97
2022-11-24T07:04:22.674Z,99452.13
2022-11-24T07:06:50.197Z,99462.59
2022-11-24T07:09:17.700Z,99466.44
2022-11-24T07:11:45.208Z,99462.41
2022-11-24T07:14:12.772Z,99472.44
2022-11-24T07:16:40.640Z,99472.88
2022-11-24T07:19:10.000Z,99467.72
2022-11-24T07:21:37.505Z,99479.03
2022-11-24T07:24:05.356Z,99485.69
2022-11-24T07:26:37.244Z,99482.47
2022-11-24T07:29:05.535Z,99485.50
2022-11-24T07:31:32.981Z,99479.25
2022-11-24T07:34:00.663Z,99487.81
2022-11-24T07:36:28.125Z,99487.81
2022-11-24T07:38:55.517Z,99489.72
2022-11-24T07:41:23.048Z,99493.38
2022-11-24T07:43:51.700Z,99495.91
2022-11-24T07:46:20.365Z,99501.00
2022-11-24T07:48:47.836Z,99496.34
2022-11-24T07:51:16.029Z,99519.00
2022-11-24T07:53:44.305Z,99516.03
2022-11-24T07:56:12.582Z,99514.09
2022-11-24T07:58:40.159Z,99511.94
2022-11-24T08:01:13.061Z,99513.88
2022-11-24T08:03:41.253Z,99522.38
2022-11-24T08:06:25.052Z,99521.31
2022-11-24T08:08:55.609Z,99523.91
2022-11-24T08:11:23.959Z,99531.63
2022-11-24T08:13:51.494Z,99520.28
2022-11-24T08:16:20.487Z,99534.78
2022-11-24T08:18:52.811Z,99526.69
2022-11-24T08:21:23.356Z,99530.13
2022-11-24T08:23:55.823Z,99539.06
2022-11-24T08:26:25.115Z,99533.97
2022-11-24T08:28:58.210Z,99535.00
2022-11-24T08:31:32.721Z,99538.16
2022-11-24T08:34:01.820Z,99536.94
2022-11-24T08:36:29.542Z,99542.63
2022-11-24T08:38:58.744Z,99544.56
2022-11-24T08:41:27.581Z,99546.56
2022-11-24T08:43:55.507Z,99547.81
2022-11-24T08:46:23.839Z,99552.56
2022-11-24T08:48:53.502Z,99550.16
2022-11-24T08:51:24.443Z,99554.47
2022-11-24T08:53:56.870Z,99553.81
2022-11-24T08:56:25.960Z,99558.91
2022-11-24T08:58:54.728Z,99556.31
2022-11-24T09:01:22.570Z,99561.22
2022-11-24T09:03:51.576Z,99560.81
2022-11-24T09:06:25.263Z,99552.94
2022-11-24T09:08:55.882Z,99558.50
2022-11-24T09:11:24.590Z,99563.19
2022-11-24T09:13:53.373Z,99567.00
2022-11-24T09:16:24.213Z,99557.44
2022-11-24T09:18:59.717Z,99562.78
2022-11-24T09:21:27.787Z,99559.38
2022-11-24T09:23:55.595Z,99564.69
2022-11-24T09:26:28.856Z,99556.78
2022-11-24T09:28:57.960Z,99564.69
2022-11-24T09:31:28.707Z,99570.84
2022-11-24T09:33:56.926Z,99563.81
2022-11-24T09:36:24.582Z,99567.63
2022-11-24T09:38:52.604Z,99559.28
2022-11-24T09:41:38.393Z,99563.41
2022-11-24T09:44:08.986Z,99567.84
2022-11-24T09:46:44.382Z,99574.69
2022-11-24T09:49:17.706Z,99574.50
2022-11-24T09:51:49.821Z,99572.78
2022-11-24T09:54:23.086Z,99571.53
2022-11-24T09:56:52.218Z,99577.47
2022-11-24T09:59:24.221Z,99580.25
2022-11-24T10:01:52.534Z,99580.47
2022-11-24T10:04:28.438Z,99581.91
2022-11-24T10:07:09.512Z,99574.03
2022-11-24T10:10:06.442Z,99579.59
2022-11-24T10:12:52.637Z,99576.41
2022-11-24T10:15:25.701Z,99578.72
2022-11-24T10:18:05.115Z,99582.81
2022-11-24T10:20:52.614Z,99584.25
2022-11-24T10:23:49.709Z,99592.81
2022-11-24T10:26:26.787Z,99584.88
2022-11-24T10:28:57.937Z,99579.53
2022-11-24T10:31:44.612Z,99587.72
2022-11-24T10:34:23.241Z,99579.84
2022-11-24T10:37:09.251Z,99583.22
2022-11-24T10:39:59.832Z,99583.22
2022-11-24T10:42:33.607Z,99589.34
2022-11-24T10:45:04.128Z,99588.50
2022-11-24T10:47:31.725Z,99595.19
2022-11-24T10:50:21.614Z,99599.66
2022-11-24T10:53:19.168Z,99601.97
2022-11-24T10:55:55.836Z,99604.56
2022-11-24T10:58:26.807Z,99603.91
2022-11-24T11:00:56.507Z,99597.03
2022-11-24T11:03:26.724Z,99607.06
2022-11-24T11:05:57.624Z,99600.47
2022-11-24T11:08:29.343Z,99592.72
2022-11-24T11:11:17.200Z,99589.13
2022-11-24T11:13:58.185Z,99591.03
2022-11-24T11:16:53.889Z,99590.84
2022-11-24T11:19:53.260Z,99594.72
2022-11-24T11:22:32.030Z,99594.22
2022-11-24T11:25:25.521Z,99598.75
2022-11-24T11:28:29.668Z,99596.38
2022-11-24T11:31:20.924Z,99595.50
2022-11-24T11:34:06.426Z,99597.81
2022-11-24T11:36:40.808Z,99595.97
2022-11-24T11:39:20.535Z,99595.31
2022-11-24T11:41:51.920Z,99593.59
2022-11-24T11:44:46.775Z,99608.34
2022-11-24T11:47:28.356Z,99610.06
2022-11-24T11:49:56.723Z,99603.22
2022-11-24T11:52:36.572Z,99608.13
2022-11-24T11:55:17.700Z,99603.19
2022-11-24T11:58:34.017Z,99607.19
2022-11-24T12:01:27.738Z,99606.56
2022-11-24T12:04:13.486Z,99616.22
2022-11-24T12:07:22.722Z,99616.81
2022-11-24T12:10:24.564Z,99617.31
2022-11-24T12:13:22.377Z,99614.94
2022-11-24T12:15:52.568Z,99630.78
2022-11-24T12:19:01.601Z,99626.72
2022-11-24T12:22:06.893Z,99616.31
2022-11-24T12:24:54.633Z,99623.56
2022-11-24T12:28:03.789Z,99629.13
2022-11-24T12:30:46.473Z,99622.97
2022-11-24T12:33:52.292Z,99620.09
2022-11-24T12:36:58.252Z,99630.19
2022-11-24T12:39:47.363Z,99630.00
2022-11-24T12:42:23.721Z,99634.28
2022-11-24T12:44:57.033Z,99628.13
2022-11-24T12:47:42.840Z,99636.84
2022-11-24T12:50:18.971Z,99629.81
2022-11-24T12:53:10.004Z,99640.22
2022-11-24T12:55:39.474Z,99638.13
2022-11-24T12:58:31.740Z,99635.13
2022-11-24T13:01:19.390Z,99643.69
2022-11-24T13:04:11.567Z,99636.00
2022-11-24T13:06:54.364Z,99643.47
2022-11-24T13:09:21.784Z,99646.91
2022-11-24T13:11:51.721Z,99649.41
2022-11-24T13:14:28.304Z,99640.22
2022-11-24T13:19:49.516Z,99640.22
2022-11-24T13:22:24.400Z,99644.94
2022-11-24T13:25:16.353Z,99646.47
2022-11-24T13:27:45.934Z,99647.44
2022-11-24T13:30:35.304Z,99644.06
2022-11-24T13:33:16.134Z,99645.72
2022-11-24T13:36:03.028Z,99646.84
2022-11-24T13:38:54.033Z,99648.97
2022-11-24T13:41:33.664Z,99651.91
2022-11-24T13:44:16.591Z,99656.03
2022-11-24T13:47:05.609Z,99657.09
2022-11-24T13:49:42.012Z,99666.13
2022-11-24T13:52:40.500Z,99654.31
2022-11-24T13:55:13.788Z,99659.88
2022-11-24T13:57:53.352Z,99662.44
2022-11-24T14:00:35.800Z,99666.06
2022-11-24T14:03:28.818Z,99671.63
2022-11-24T14:05:56.921Z,99679.28
2022-11-24T14:08:28.898Z,99680.53
2022-11-24T14:10:58.703Z,99687.03
2022-11-24T14:13:28.982Z,99683.31
2022-11-24T14:16:15.656Z,99682.25
2022-11-24T14:18:48.731Z,99680.75
2022-11-24T14:21:22.876Z,99689.53
2022-11-24T14:24:28.924Z,99696.78
2022-11-24T14:26:56.380Z,99697.78
2022-11-24T14:29:25.061Z,99694.22
2022-11-24T14:31:57.826Z,99699.91
2022-11-24T14:34:28.803Z,99692.25
2022-11-24T14:36:57.989Z,99702.75
2022-11-24T14:39:26.846Z,99705.06
2022-11-24T14:42:04.013Z,99706.97
2022-11-24T14:44:34.522Z,99709.72
2022-11-24T14:47:19.955Z,99712.31
2022-11-24T14:49:47.491Z,99711.25
2022-11-24T14:52:18.205Z,99708.03
2022-11-24T14:55:07.518Z,99722.13
2022-11-24T14:57:45.096Z,99716.75
2022-11-24T15:00:12.484Z,99725.31
2022-11-24T15:02:51.836Z,99716.81
2022-11-24T15:05:24.793Z,99724.66
2022-11-24T15:08:03.210Z,99730.88
2022-11-24T15:10:37.316Z,99736.03
2022-11-24T15:13:16.203Z,99730.97
2022-11-24T15:15:51.541Z,99740.72
2022-11-24T15:18:33.407Z,99741.00
2022-11-24T15:21:01.210Z,99750.38
2022-11-24T15:23:30.610Z,99750.75
2022-11-24T15:26:18.398Z,99752.50
2022-11-24T15:28:47.018Z,99754.88
2022-11-24T15:31:14.793Z,99762.66
2022-11-24T15:33:42.357Z,99751.56
2022-11-24T15:36:11.619Z,99760.16
2022-11-24T15:38:39.123Z,99758.38
2022-11-24T15:41:17.597Z,99756.72
2022-11-24T15:43:45.392Z,99756.31
2022-11-24T15:46:13.057Z,99760.56
2022-11-24T15:48:40.543Z,99765.69
2022-11-24T15:51:13.227Z,99771.84
2022-11-24T15:53:48.177Z,99781.50
2022-11-24T15:56:24.327Z,99774.50
2022-11-24T15:58:52.720Z,99771.84
2022-11-24T16:01:22.630Z,99782.34
2022-11-24T16:03:50.119Z,99788.47
2022-11-24T16:06:24.568Z,99782.47
2022-11-24T16:08:53.914Z,99786.59
2022-11-24T16:11:22.047Z,99789.72
2022-11-24T16:13:52.970Z,99789.06
2022-11-24T16:16:25.322Z,99792.50
2022-11-24T16:18:53.244Z,99791.00
2022-11-24T16:21:20.841Z,99790.78
2022-11-24T16:23:48.835Z,99790.72
2022-11-24T16:26:16.391Z,99794.16
2022-11-24T16:28:45.323Z,99798.09
2022-11-24T16:31:15.646Z,99806.50
2022-11-24T16:33:44.929Z,99806.13
2022-11-24T16:36:13.377Z,99798.84
2022-11-24T16:38:41.064Z,99805.91
2022-11-24T16:41:10.420Z,99796.75
2022-11-24T16:43:38.308Z,99800.28
2022-11-24T16:46:08.924Z,99806.13
2022-11-24T16:48:37.185Z,99801.41
2022-11-24T16:51:11.850Z,99812.63
2022-11-24T16:53:39.899Z,99814.34
2022-11-24T16:56:07.959Z,99814.69
2022-11-24T16:58:40.498Z,99822.44
2022-11-24T17:01:11.543Z,99819.41
2022-11-24T17:03:39.686Z,99826.09
2022-11-24T17:06:09.621Z,99826.19
2022-11-24T17:08:39.524Z,99825.31
2022-11-24T17:11:11.873Z,99825.53
2022-11-24T17:13:40.072Z,99830.41
2022-11-24T17:16:13.595Z,99834.59
2022-11-24T17:18:41.809Z,99843.78
2022-11-24T17:21:23.815Z,99838.44
2022-11-24T17:23:55.763Z,99850.50
2022-11-24T17:26:24.190Z,99848.59
2022-11-24T17:28:51.866Z,99855.31
2022-11-24T17:31:32.162Z,99858.16
2022-11-24T17:34:00.453Z,99850.66
2022-11-24T17:36:29.550Z,99857.66
2022-11-24T17:38:59.246Z,99843.78
2022-11-24T17:41:27.791Z,99850.00
2022-11-24T17:43:56.704Z,99849.81
2022-11-24T17:46:25.484Z,99859.38
2022-11-24T17:48:53.320Z,99856.13
2022-11-24T17:51:23.483Z,99859.38
2022-11-24T17:53:52.261Z,99868.28
2022-11-24T17:56:23.562Z,99867.63
2022-11-24T17:59:00.959Z,99864.28
2022-11-24T18:01:30.255Z,99871.63
2022-11-24T18:03:58.625Z,99878.41
2022-11-24T18:06:28.569Z,99880.41
2022-11-24T18:08:57.719Z,99885.78
2022-11-24T18:11:31.341Z,99895.34
2022-11-24T18:14:02.318Z,99888.38
2022-11-24T18:16:32.968Z,99895.94
2022-11-24T18:19:11.325Z,99895.47
2022-11-24T18:21:43.816Z,99900.84
2022-11-24T18:24:12.676Z,99904.25
2022-11-24T18:26:41.736Z,99905.31
2022-11-24T18:29:11.069Z,99905.97
2022-11-24T18:31:39.036Z,99904.44
2022-11-24T18:34:06.826Z,99906.97
2022-11-24T18:36:35.159Z,99902.91
2022-11-24T18:39:04.758Z,99902.66
2022-11-24T18:41:32.837Z,99903.31
2022-11-24T18:44:07.824Z,99907.31
2022-11-24T18:46:36.142Z,99910.47
2022-11-24T18:49:03.811Z,99907.16
2022-11-24T18:51:31.447Z,99913.72
2022-11-24T18:53:59.049Z,99917.00
2022-11-24T18:56:27.143Z,99912.22
2022-11-24T18:58:56.065Z,99925.44
2022-11-24T19:01:26.260Z,99924.84
2022-11-24T19:03:56.621Z,99929.03
2022-11-24T19:06:33.328Z,99926.97
2022-11-24T19:09:06.963Z,99932.00
2022-11-24T19:11:37.130Z,99937.00
2022-11-24T19:14:06.288Z,99938.16
2022-11-24T19:16:34.431Z,99942.47
2022-11-24T19:19:03.205Z,99942.81
2022-11-24T19:21:32.948Z,99935.66
2022-11-24T19:24:04.980Z,99946.38
2022-11-24T19:26:35.324Z,99937.88
2022-11-24T19:29:03.793Z,99946.16
2022-11-24T19:31:31.712Z,99944.16
2022-11-24T19:33:59.926Z,99945.88
2022-11-24T19:36:27.429Z,99959.88
2022-11-24T19:38:56.567Z,99958.31
2022-11-24T19:41:29.563Z,99961.34
2022-11-24T19:43:58.759Z,99958.53
2022-11-24T19:46:29.585Z,99962.72
2022-11-24T19:49:00.879Z,99969.28
2022-11-24T19:51:33.461Z,99977.28
2022-11-24T19:54:01.424Z,99979.31
2022-11-24T19:56:31.296Z,99986.41
2022-11-24T19:58:58.896Z,99979.53
2022-11-24T20:01:27.699Z,99992.78
2022-11-24T20:04:00.484Z,99988.06
2022-11-24T20:06:30.856Z,100005.19
2022-11-24T20:09:00.478Z,100005.22
2022-11-24T20:11:28.862Z,100010.53
2022-11-24T20:13:57.167Z,100015.44
2022-11-24T20:16:35.139Z,100013.53
2022-11-24T20:19:08.604Z,100022.44
2022-11-24T20:21:37.799Z,100027.03
2022-11-24T20:24:12.622Z,100023.28
2022-11-24T20:26:43.868Z,100038.94
2022-11-24T20:29:13.209Z,100044.28
2022-11-24T20:31:44.283Z,100030.72
2022-11-24T20:34:12.522Z,100046.59
2022-11-24T20:36:41.914Z,100043.56
2022-11-24T20:39:18.090Z,100040.22
2022-11-24T20:41:45.570Z,100050.88
2022-11-24T20:44:16.319Z,100054.84
2022-11-24T20:46:45.092Z,100059.94
2022-11-24T20:49:15.889Z,100045.97
2022-11-24T20:51:44.334Z,100054.94
2022-11-24T20:54:13.139Z,100063.50
2022-11-24T20:56:44.064Z,100068.06
2022-11-24T20:59:14.302Z,100066.38
2022-11-24T21:01:45.578Z,100058.53
2022-11-24T21:04:21.860Z,100059.41
2022-11-24T21:06:49.532Z,100067.72
2022-11-24T21:09:17.353Z,100073.13
2022-11-24T21:11:44.979Z,100064.44
2022-11-24T21:14:12.539Z,100069.25
2022-11-24T21:16:41.976Z,100064.19
2022-11-24T21:19:14.975Z,100069.75
2022-11-24T21:21:43.224Z,100072.75
2022-11-24T21:24:19.050Z,100073.59
2022-11-24T21:26:47.827Z,100074.22
2022-11-24T21:29:22.156Z,100075.00
2022-11-24T21:31:50.000Z,100081.09
2022-11-24T21:34:18.913Z,100074.63
2022-11-24T21:36:47.520Z,100076.59
2022-11-24T21:39:15.885Z,100079.38
2022-11-24T21:41:43.743Z,100085.34
2022-11-24T21:44:12.856Z,100081.88
2022-11-24T21:46:45.110Z,100075.78
2022-11-24T21:49:17.042Z,100075.59
2022-11-24T21:51:44.535Z,100074.00
2022-11-24T21:54:11.990Z,100074.69
2022-11-24T21:56:39.381Z,100071.31
2022-11-24T21:59:06.885Z,100069.41
2022-11-24T22:01:34.405Z,100077.13
2022-11-24T22:04:01.970Z,100067.81
2022-11-24T22:06:29.488Z,100075.47
2022-11-24T22:08:57.051Z,100080.56
2022-11-24T22:11:25.579Z,100081.41
2022-11-24T22:13:53.708Z,100091.50
2022-11-24T22:16:23.402Z,100080.38
2022-11-24T22:18:51.257Z,100089.28
2022-11-24T22:21:23.752Z,100089.63
2022-11-24T22:23:55.211Z,100098.28
2022-11-24T22:26:23.846Z,100091.84
2022-11-24T22:28:52.056Z,100100.75
2022-11-24T22:31:21.909Z,100096.31
2022-11-24T22:33:50.083Z,100094.06
2022-11-24T22:36:20.821Z,100102.50
2022-11-24T22:38:52.937Z,100106.50
2022-11-24T22:41:20.631Z,100100.47
2022-11-24T22:43:48.067Z,100107.59
2022-11-24T22:46:18.204Z,100112.31
2022-11-24T22:48:47.377Z,100114.88
2022-11-24T22:51:20.473Z,100112.72
2022-11-24T22:53:49.536Z,100119.69
2022-11-24T22:56:17.725Z,100121.69
2022-11-24T22:58:45.548Z,100124.81
2022-11-24T23:01:12.984Z,100118.25
2022-11-24T23:03:41.522Z,100116.00
2022-11-24T23:06:17.810Z,100131.94
2022-11-24T23:08:45.166Z,100129.00
2022-11-24T23:11:18.660Z,100129.66
2022-11-24T23:13:46.751Z,100131.94
2022-11-24T23:16:16.915Z,100137.44
2022-11-24T23:18:49.855Z,100138.63
2022-11-24T23:21:26.943Z,100137.41
2022-11-24T23:23:55.075Z,100131.53
2022-11-24T23:26:26.998Z,100127.53
2022-11-24T23:28:54.786Z,100124.00
2022-11-24T23:31:28.376Z,100129.94
2022-11-24T23:34:01.823Z,100134.84
2022-11-24T23:36:30.246Z,100130.78
2022-11-24T23:39:05.566Z,100131.56
2022-11-24T23:41:33.215Z,100133.41
2022-11-24T23:44:00.716Z,100130.25
2022-11-24T23:46:28.544Z,100130.69
2022-11-24T23:48:56.308Z,100131.84
2022-11-24T23:51:25.884Z,100145.31
2022-11-24T23:53:54.004Z,100154.06
2022-11-24T23:56:33.092Z,100147.34
2022-11-24T23:59:02.227Z,100157.97
